Comunidad El Canon, Puerto Rico
Current Conditions -  °F | °C
As of 4:50 PM on Sunday 21 Dec 2014 (Local Time) from TJBQ Reporting Station
Few Clouds Few Clouds  
Wind Chill: 81°   Ceiling: Unl
Heat Index: 83°   Visibility: 10mi
Dew Point: 66°   Wind: 17mph
Humidity: 61%   Direction: 90°E
Pressure: 30.03"   Gusts: 23mph
Location:  18.4951°N, 67.0273°W
Report Text: TJBQ 212050Z 09015G20KT 10SM FEW030 27/19 A3003 RMK RWY 8 ATIS F
Loading
Personal Weather Stations






























Interactive Weather Map New forecast layout! Learn more

10-Day Weather Forecast

Advertisements
Track Severe Weather on mobile